createdAt,value
2019-03-24T00:02:22.617Z,101281.05
2019-03-24T00:04:54.072Z,101277.95
2019-03-24T00:07:26.254Z,101281.55
2019-03-24T00:09:58.239Z,101283.55
2019-03-24T00:12:29.048Z,101278.45
2019-03-24T00:14:59.675Z,101279.36
2019-03-24T00:17:30.309Z,101274.77
2019-03-24T00:20:03.189Z,101279.12
2019-03-24T00:22:33.745Z,101286.18
2019-03-24T00:25:08.517Z,101280.13
2019-03-24T00:27:39.380Z,101288.81
2019-03-24T00:30:11.546Z,101295.37
2019-03-24T00:32:42.501Z,101300.19
2019-03-24T00:35:13.168Z,101298.80
2019-03-24T00:37:43.850Z,101300.29
2019-03-24T00:40:15.397Z,101286.18
2019-03-24T00:42:46.949Z,101290.67
2019-03-24T00:45:19.217Z,101291.80
2019-03-24T00:47:50.055Z,101281.02
2019-03-24T00:50:20.646Z,101285.98
2019-03-24T00:52:51.418Z,101286.38
2019-03-24T00:55:22.350Z,101287.50
2019-03-24T00:57:53.909Z,101278.58
2019-03-24T01:00:45.009Z,101283.54
2019-03-24T01:03:15.959Z,101271.27
2019-03-24T01:05:46.528Z,101270.16
2019-03-24T01:08:17.414Z,101265.59
2019-03-24T01:10:48.045Z,101262.13
2019-03-24T01:13:18.677Z,101258.90
2019-03-24T01:15:49.616Z,101254.20
2019-03-24T01:18:20.449Z,101265.25
2019-03-24T01:20:51.676Z,101271.33
2019-03-24T01:23:23.651Z,101267.97
2019-03-24T01:25:56.329Z,101267.96
2019-03-24T01:28:27.806Z,101283.59
2019-03-24T01:30:58.511Z,101284.82
2019-03-24T01:33:29.218Z,101289.05
2019-03-24T01:36:00.081Z,101295.24
2019-03-24T01:38:30.487Z,101288.92
2019-03-24T01:41:01.441Z,101283.08
2019-03-24T01:43:32.282Z,101288.77
2019-03-24T01:46:03.671Z,101287.16
2019-03-24T01:48:34.065Z,101289.62
2019-03-24T01:51:05.600Z,101296.81
2019-03-24T01:53:36.336Z,101295.80
2019-03-24T01:56:09.150Z,101289.73
2019-03-24T01:58:42.202Z,101285.14
2019-03-24T02:01:13.450Z,101284.53
2019-03-24T02:03:43.976Z,101286.03
2019-03-24T02:06:14.603Z,101287.14
2019-03-24T02:08:45.336Z,101281.31
2019-03-24T02:11:16.068Z,101281.78
2019-03-24T02:13:46.801Z,101287.60
2019-03-24T02:16:17.418Z,101282.28
2019-03-24T02:18:48.161Z,101279.16
2019-03-24T02:21:19.404Z,101274.06
2019-03-24T02:23:49.930Z,101284.98
2019-03-24T02:26:20.971Z,101279.52
2019-03-24T02:28:52.118Z,101289.08
2019-03-24T02:31:22.746Z,101292.67
2019-03-24T02:33:53.479Z,101290.20
2019-03-24T02:36:24.726Z,101289.08
2019-03-24T02:38:55.066Z,101287.58
2019-03-24T02:41:25.520Z,101284.71
2019-03-24T02:43:56.203Z,101278.16
2019-03-24T02:46:27.548Z,101282.38
2019-03-24T02:48:58.245Z,101291.33
2019-03-24T02:51:28.816Z,101288.34
2019-03-24T02:53:59.453Z,101290.44
2019-03-24T02:56:30.170Z,101286.08
2019-03-24T02:59:01.622Z,101294.77
2019-03-24T03:01:32.294Z,101287.55
2019-03-24T03:04:03.395Z,101284.31
2019-03-24T03:06:33.725Z,101284.84
2019-03-24T03:09:05.561Z,101287.08
2019-03-24T03:11:36.106Z,101282.02
2019-03-24T03:14:07.550Z,101285.88
2019-03-24T03:16:39.284Z,101287.84
2019-03-24T03:19:12.462Z,101285.38
2019-03-24T03:21:42.688Z,101275.83
2019-03-24T03:24:13.556Z,101285.11
2019-03-24T03:26:44.492Z,101279.16
2019-03-24T03:29:15.222Z,101288.47
2019-03-24T03:31:45.648Z,101288.47
2019-03-24T03:34:16.289Z,101280.52
2019-03-24T03:36:47.392Z,101283.85
2019-03-24T03:39:18.854Z,101281.89
2019-03-24T03:41:50.930Z,101281.25
2019-03-24T03:44:21.370Z,101287.11
2019-03-24T03:46:53.274Z,101286.97
2019-03-24T03:49:23.851Z,101293.27
2019-03-24T03:51:55.191Z,101295.77
2019-03-24T03:54:28.005Z,101294.27
2019-03-24T03:56:58.401Z,101293.27
2019-03-24T03:59:29.171Z,101287.31
2019-03-24T04:01:59.865Z,101281.22
2019-03-24T04:04:30.425Z,101272.77
2019-03-24T04:07:02.664Z,101273.63
2019-03-24T04:09:33.185Z,101273.73
2019-03-24T04:12:04.326Z,101275.59
2019-03-24T04:14:35.163Z,101273.59
2019-03-24T04:17:07.821Z,101273.69
2019-03-24T04:19:37.651Z,101273.55
2019-03-24T04:22:08.385Z,101279.59
2019-03-24T04:24:41.268Z,101278.33
2019-03-24T04:27:12.629Z,101288.14
2019-03-24T04:29:43.348Z,101280.64
2019-03-24T04:32:13.979Z,101298.89
2019-03-24T04:34:45.173Z,101297.02
2019-03-24T04:37:15.958Z,101297.38
2019-03-24T04:39:47.917Z,101284.95
2019-03-24T04:42:18.584Z,101285.63
2019-03-24T04:44:49.070Z,101282.67
2019-03-24T04:47:19.603Z,101276.87
2019-03-24T04:49:50.742Z,101269.90
2019-03-24T04:52:22.363Z,101275.70
2019-03-24T04:54:52.515Z,101278.39
2019-03-24T04:57:23.244Z,101282.91
2019-03-24T04:59:54.554Z,101278.23
2019-03-24T05:02:25.335Z,101284.28
2019-03-24T05:04:55.932Z,101288.66
2019-03-24T05:07:29.147Z,101267.64
2019-03-24T05:09:59.674Z,101262.22
2019-03-24T05:12:32.557Z,101268.45
2019-03-24T05:15:02.775Z,101264.27
2019-03-24T05:17:33.409Z,101272.15
2019-03-24T05:20:04.853Z,101268.55
2019-03-24T05:22:35.077Z,101262.86
2019-03-24T05:25:07.051Z,101269.12
2019-03-24T05:27:37.241Z,101288.34
2019-03-24T05:30:09.376Z,101296.09
2019-03-24T05:32:40.262Z,101291.98
2019-03-24T05:35:10.976Z,101264.42
2019-03-24T05:37:41.625Z,101264.09
2019-03-24T05:40:12.659Z,101263.84
2019-03-24T05:42:43.192Z,101268.38
2019-03-24T05:45:13.921Z,101269.27
2019-03-24T05:47:44.553Z,101280.09
2019-03-24T05:50:15.282Z,101281.03
2019-03-24T05:52:45.793Z,101276.80
2019-03-24T05:55:16.194Z,101274.89
2019-03-24T05:57:47.374Z,101282.11
2019-03-24T06:00:18.312Z,101283.06
2019-03-24T06:02:49.043Z,101280.08
2019-03-24T06:05:20.012Z,101280.78
2019-03-24T06:07:50.501Z,101278.80
2019-03-24T06:10:21.146Z,101286.09
2019-03-24T06:12:52.486Z,101286.67
2019-03-24T06:15:23.262Z,101279.68
2019-03-24T06:17:53.748Z,101290.98
2019-03-24T06:20:24.273Z,101288.34
2019-03-24T06:22:54.808Z,101280.15
2019-03-24T06:25:25.465Z,101278.16
2019-03-24T06:27:56.166Z,101268.70
2019-03-24T06:30:26.695Z,101272.94
2019-03-24T06:32:57.224Z,101265.05
2019-03-24T06:35:27.747Z,101264.20
2019-03-24T06:38:00.427Z,101266.97
2019-03-24T06:40:30.950Z,101260.42
2019-03-24T06:43:02.310Z,101271.78
2019-03-24T06:45:32.829Z,101269.69
2019-03-24T06:48:04.280Z,101278.02
2019-03-24T06:50:35.730Z,101271.41
2019-03-24T06:53:06.355Z,101258.95
2019-03-24T06:55:36.847Z,101264.34
2019-03-24T06:58:09.970Z,101272.56
2019-03-24T07:00:40.495Z,101271.59
2019-03-24T07:03:11.645Z,101266.13
2019-03-24T07:05:42.132Z,101270.66
2019-03-24T07:08:14.951Z,101271.85
2019-03-24T07:10:45.987Z,101268.94
2019-03-24T07:13:16.518Z,101265.44
2019-03-24T07:15:47.253Z,101265.91
2019-03-24T07:18:17.781Z,101263.75
2019-03-24T07:20:48.409Z,101267.36
2019-03-24T07:23:18.835Z,101260.11
2019-03-24T07:25:50.160Z,101264.91
2019-03-24T07:28:20.407Z,101264.22
2019-03-24T07:30:51.135Z,101249.53
2019-03-24T07:33:22.210Z,101260.34
2019-03-24T07:35:53.317Z,101246.38
2019-03-24T07:38:25.480Z,101246.81
2019-03-24T07:40:55.803Z,101235.93
2019-03-24T07:43:26.328Z,101227.13
2019-03-24T07:45:56.961Z,101230.80
2019-03-24T07:48:27.117Z,101220.20
2019-03-24T07:50:58.219Z,101231.23
2019-03-24T07:53:28.745Z,101227.13
2019-03-24T07:55:59.275Z,101228.03
2019-03-24T07:58:29.906Z,101221.41
2019-03-24T08:01:02.012Z,101210.28
2019-03-24T08:03:32.531Z,101201.46
2019-03-24T08:06:03.629Z,101200.53
2019-03-24T08:08:43.857Z,101202.28
2019-03-24T08:11:06.225Z,101199.50
2019-03-24T08:13:36.959Z,101195.52
2019-03-24T08:16:07.296Z,101191.40
2019-03-24T08:18:38.322Z,101180.56
2019-03-24T08:21:08.737Z,101179.75
2019-03-24T08:23:39.378Z,101166.64
2019-03-24T08:26:09.911Z,101169.75
2019-03-24T08:28:41.355Z,101169.92
2019-03-24T08:31:12.193Z,101164.47
2019-03-24T08:33:42.510Z,101166.42
2019-03-24T08:36:13.013Z,101157.59
2019-03-24T08:38:44.624Z,101154.34
2019-03-24T08:41:15.918Z,101155.72
2019-03-24T08:43:48.623Z,101154.34
2019-03-24T08:46:19.351Z,101150.61
2019-03-24T08:48:50.081Z,101146.20
2019-03-24T08:51:20.816Z,101144.08
2019-03-24T08:53:53.083Z,101146.09
2019-03-24T08:56:25.045Z,101133.84
2019-03-24T08:58:55.675Z,101128.11
2019-03-24T09:01:26.305Z,101127.16
2019-03-24T09:03:56.937Z,101114.89
2019-03-24T09:06:29.210Z,101107.69
2019-03-24T09:09:01.171Z,101092.86
2019-03-24T09:11:31.771Z,101103.64
2019-03-24T09:14:04.371Z,101099.14
2019-03-24T09:16:34.593Z,101093.44
2019-03-24T09:19:05.221Z,101097.16
2019-03-24T09:21:35.748Z,101100.41
2019-03-24T09:24:06.282Z,101106.66
2019-03-24T09:26:37.409Z,101109.84
2019-03-24T09:29:09.465Z,101112.52
2019-03-24T09:31:40.011Z,101097.36
2019-03-24T09:34:10.534Z,101108.98
2019-03-24T09:36:41.073Z,101107.40
2019-03-24T09:39:12.109Z,101101.59
2019-03-24T09:41:42.835Z,101105.83
2019-03-24T09:44:13.464Z,101110.80
2019-03-24T09:46:45.529Z,101108.77
2019-03-24T09:49:16.343Z,101090.80
2019-03-24T09:51:48.427Z,101090.71
2019-03-24T09:54:18.855Z,101081.75
2019-03-24T09:56:49.381Z,101075.86
2019-03-24T09:59:20.034Z,101095.71
2019-03-24T10:01:50.649Z,101082.22
2019-03-24T10:04:21.576Z,101077.75
2019-03-24T10:06:52.119Z,101073.18
2019-03-24T10:09:22.606Z,101083.55
2019-03-24T10:11:53.199Z,101073.80
2019-03-24T10:14:23.691Z,101080.92
2019-03-24T10:16:55.780Z,101075.37
2019-03-24T10:19:26.077Z,101072.92
2019-03-24T10:21:58.857Z,101064.21
2019-03-24T10:24:29.594Z,101056.27
2019-03-24T10:27:00.013Z,101051.18
2019-03-24T10:29:31.365Z,101059.33
2019-03-24T10:32:01.932Z,101052.97
2019-03-24T10:34:32.334Z,101057.20
2019-03-24T10:37:03.360Z,101050.28
2019-03-24T10:39:34.619Z,101050.23
2019-03-24T10:42:05.126Z,101045.11
2019-03-24T10:44:36.573Z,101043.03
2019-03-24T10:47:07.566Z,101033.78
2019-03-24T10:49:38.746Z,101029.02
2019-03-24T10:52:10.937Z,101025.42
2019-03-24T10:54:41.344Z,101026.48
2019-03-24T10:57:11.875Z,101021.61
2019-03-24T10:59:42.938Z,101021.09
2019-03-24T11:02:13.645Z,101014.28
2019-03-24T11:04:44.384Z,101016.16
2019-03-24T11:07:14.807Z,101012.56
2019-03-24T11:09:45.334Z,101020.42
2019-03-24T11:12:15.863Z,101021.56
2019-03-24T11:14:46.596Z,101007.32
2019-03-24T11:17:18.152Z,101001.81
2019-03-24T11:19:48.491Z,101000.41
2019-03-24T11:22:19.278Z,100999.56
2019-03-24T11:24:51.445Z,100987.77
2019-03-24T11:27:22.623Z,100984.59
2019-03-24T11:29:53.344Z,100987.22
2019-03-24T11:32:27.212Z,100988.45
2019-03-24T11:35:01.797Z,100988.08
2019-03-24T11:37:33.526Z,100980.66
2019-03-24T11:40:06.006Z,100980.95
2019-03-24T11:42:36.424Z,100978.44
2019-03-24T11:45:09.525Z,100979.70
2019-03-24T11:47:39.735Z,100979.12
2019-03-24T11:50:10.478Z,100981.40
2019-03-24T11:52:41.201Z,100977.64
2019-03-24T11:55:12.959Z,100984.27
2019-03-24T11:57:45.480Z,100970.27
2019-03-24T12:00:17.082Z,100973.78
2019-03-24T12:02:49.861Z,100964.67
2019-03-24T12:05:20.732Z,100971.19
2019-03-24T12:07:51.635Z,100966.42
2019-03-24T12:10:22.648Z,100974.78
2019-03-24T12:12:53.201Z,100963.05
2019-03-24T12:15:24.651Z,100960.67
2019-03-24T12:17:54.877Z,100961.08
2019-03-24T12:20:27.465Z,100952.67
2019-03-24T12:22:58.281Z,100949.92
2019-03-24T12:25:30.658Z,100953.54
2019-03-24T12:28:02.207Z,100944.73
2019-03-24T12:30:33.556Z,100944.93
2019-03-24T12:33:04.004Z,100935.22
2019-03-24T12:35:34.837Z,100936.14
2019-03-24T12:38:05.542Z,100932.84
2019-03-24T12:40:36.198Z,100925.77
2019-03-24T12:43:19.045Z,100930.92
2019-03-24T12:45:43.576Z,100932.37
2019-03-24T12:48:14.261Z,100928.00
2019-03-24T12:50:44.836Z,100930.34
2019-03-24T12:53:16.083Z,100925.55
2019-03-24T12:55:46.288Z,100923.64
2019-03-24T12:58:18.035Z,100920.20
2019-03-24T13:00:49.844Z,100922.10
2019-03-24T13:03:20.344Z,100918.75
2019-03-24T13:05:51.385Z,100917.34
2019-03-24T13:08:22.015Z,100939.14
2019-03-24T13:10:53.264Z,100939.38
2019-03-24T13:13:23.482Z,100954.00
2019-03-24T13:15:54.008Z,100950.81
2019-03-24T13:18:24.562Z,100948.38
2019-03-24T13:20:55.062Z,100957.86
2019-03-24T13:23:25.699Z,100946.89
2019-03-24T13:25:58.935Z,100933.58
2019-03-24T13:28:29.121Z,100935.05
2019-03-24T13:31:00.125Z,100930.41
2019-03-24T13:33:30.772Z,100927.25
2019-03-24T13:36:13.583Z,100930.73
2019-03-24T13:38:43.953Z,100930.14
2019-03-24T13:41:14.541Z,100925.03
2019-03-24T13:43:47.628Z,100926.15
2019-03-24T13:46:18.580Z,100922.16
2019-03-24T13:48:49.310Z,100908.52
2019-03-24T13:51:20.028Z,100915.14
2019-03-24T13:53:51.934Z,100910.38
2019-03-24T13:56:22.519Z,100902.34
2019-03-24T13:58:54.993Z,100905.34
2019-03-24T14:01:25.494Z,100903.29
2019-03-24T14:03:56.462Z,100909.03
2019-03-24T14:06:27.599Z,100901.19
2019-03-24T14:08:58.740Z,100903.45
2019-03-24T14:11:28.840Z,100905.80
2019-03-24T14:13:59.392Z,100909.05
2019-03-24T14:16:31.587Z,100906.30
2019-03-24T14:19:01.907Z,100906.92
2019-03-24T14:21:34.039Z,100902.52
2019-03-24T14:24:08.635Z,100900.28
2019-03-24T14:26:38.886Z,100901.73
2019-03-24T14:29:09.428Z,100895.34
2019-03-24T14:31:40.147Z,100898.77
2019-03-24T14:34:10.692Z,100901.58
2019-03-24T14:36:41.303Z,100898.53
2019-03-24T14:39:11.840Z,100895.77
2019-03-24T14:41:43.180Z,100901.69
2019-03-24T14:44:13.908Z,100890.45
2019-03-24T14:46:44.541Z,100895.36
2019-03-24T14:49:15.889Z,100885.02
2019-03-24T14:51:46.111Z,100886.08
2019-03-24T14:54:16.534Z,100889.27
2019-03-24T14:56:47.265Z,100881.27
2019-03-24T14:59:18.001Z,100883.17
2019-03-24T15:01:48.727Z,100877.28
2019-03-24T15:04:19.464Z,100872.42
2019-03-24T15:06:50.504Z,100864.52
2019-03-24T15:09:21.170Z,100863.14
2019-03-24T15:11:52.684Z,100865.70
2019-03-24T15:14:23.005Z,100863.62
2019-03-24T15:16:53.839Z,100861.38
2019-03-24T15:19:25.086Z,100863.62
2019-03-24T15:21:55.382Z,100858.14
2019-03-24T15:24:27.880Z,100861.86
2019-03-24T15:26:58.511Z,100850.11
2019-03-24T15:29:29.144Z,100845.97
2019-03-24T15:32:00.080Z,100851.67
2019-03-24T15:34:30.814Z,100860.48
2019-03-24T15:37:02.365Z,100860.23
2019-03-24T15:39:32.655Z,100856.09
2019-03-24T15:42:03.522Z,100855.91
2019-03-24T15:44:34.362Z,100854.34
2019-03-24T15:47:06.418Z,100853.39
2019-03-24T15:49:37.254Z,100849.44
2019-03-24T15:52:08.439Z,100847.10
2019-03-24T15:54:39.231Z,100845.34
2019-03-24T15:57:10.641Z,100849.86
2019-03-24T15:59:42.645Z,100842.30
2019-03-24T16:02:13.375Z,100846.83
2019-03-24T16:04:44.416Z,100845.50
2019-03-24T16:07:15.275Z,100848.86
2019-03-24T16:09:46.493Z,100840.44
2019-03-24T16:12:17.234Z,100843.20
2019-03-24T16:14:47.959Z,100841.15
2019-03-24T16:17:19.185Z,100841.70
2019-03-24T16:19:49.830Z,100846.30
2019-03-24T16:22:20.563Z,100844.25
2019-03-24T16:24:51.305Z,100842.67
2019-03-24T16:27:21.929Z,100843.82
2019-03-24T16:29:52.668Z,100842.15
2019-03-24T16:32:24.013Z,100842.78
2019-03-24T16:34:54.846Z,100844.87
2019-03-24T16:37:25.677Z,100847.96
2019-03-24T16:39:56.410Z,100839.30
2019-03-24T16:42:27.089Z,100842.41
2019-03-24T16:44:59.219Z,100845.05
2019-03-24T16:47:29.778Z,100831.41
2019-03-24T16:50:00.877Z,100833.69
2019-03-24T16:52:32.415Z,100839.05
2019-03-24T16:55:03.158Z,100836.67
2019-03-24T16:57:33.895Z,100834.48
2019-03-24T17:00:07.492Z,100840.41
2019-03-24T17:02:38.118Z,100848.69
2019-03-24T17:05:08.784Z,100842.16
2019-03-24T17:07:39.586Z,100835.27
2019-03-24T17:10:10.728Z,100837.80
2019-03-24T17:12:41.562Z,100831.47
2019-03-24T17:15:12.294Z,100830.95
2019-03-24T17:17:43.948Z,100827.55
2019-03-24T17:20:16.017Z,100836.09
2019-03-24T17:22:46.639Z,100830.23
2019-03-24T17:25:17.219Z,100826.52
2019-03-24T17:27:47.907Z,100823.27
2019-03-24T17:30:18.744Z,100829.45
2019-03-24T17:32:50.295Z,100832.58
2019-03-24T17:35:20.715Z,100817.05
2019-03-24T17:37:53.001Z,100822.75
2019-03-24T17:40:23.408Z,100824.83
2019-03-24T17:42:54.142Z,100827.28
2019-03-24T17:45:24.872Z,100831.79
2019-03-24T17:47:55.704Z,100830.08
2019-03-24T17:50:26.568Z,100827.19
2019-03-24T17:52:57.482Z,100833.38
2019-03-24T17:55:30.899Z,100830.94
2019-03-24T17:58:00.281Z,100829.30
2019-03-24T18:00:45.246Z,100831.02
2019-03-24T18:03:15.799Z,100827.41
2019-03-24T18:05:48.424Z,100831.88
2019-03-24T18:08:19.452Z,100831.72
2019-03-24T18:10:50.075Z,100828.27
2019-03-24T18:13:21.168Z,100828.41
2019-03-24T18:15:51.900Z,100822.38
2019-03-24T18:18:22.836Z,100816.59
2019-03-24T18:20:54.072Z,100823.05
2019-03-24T18:23:24.701Z,100824.20
2019-03-24T18:25:55.639Z,100829.05
2019-03-24T18:28:26.572Z,100834.38
2019-03-24T18:30:57.204Z,100829.05
2019-03-24T18:33:30.598Z,100831.24
2019-03-24T18:36:00.822Z,100825.43
2019-03-24T18:38:32.884Z,100825.09
2019-03-24T18:41:03.308Z,100823.94
2019-03-24T18:43:34.038Z,100821.89
2019-03-24T18:46:04.707Z,100818.34
2019-03-24T18:48:35.510Z,100819.32
2019-03-24T18:51:06.238Z,100819.45
2019-03-24T18:53:38.475Z,100815.84
2019-03-24T18:56:09.862Z,100814.42
2019-03-24T18:58:40.279Z,100815.73
2019-03-24T19:01:11.013Z,100810.22
2019-03-24T19:03:41.964Z,100816.17
2019-03-24T19:06:12.419Z,100818.34
2019-03-24T19:08:43.216Z,100818.77
2019-03-24T19:11:14.763Z,100812.28
2019-03-24T19:13:45.401Z,100817.24
2019-03-24T19:16:15.935Z,100816.59
2019-03-24T19:18:46.755Z,100819.05
2019-03-24T19:21:17.346Z,100808.55
2019-03-24T19:23:48.119Z,100813.27
2019-03-24T19:26:19.052Z,100813.23
2019-03-24T19:28:49.615Z,100804.93
2019-03-24T19:31:20.213Z,100802.77
2019-03-24T19:33:50.946Z,100799.46
2019-03-24T19:36:21.573Z,100798.53
2019-03-24T19:38:52.202Z,100800.48
2019-03-24T19:41:23.240Z,100790.55
2019-03-24T19:43:54.281Z,100798.53
2019-03-24T19:46:25.321Z,100801.20
2019-03-24T19:48:56.876Z,100793.97
2019-03-24T19:51:28.300Z,100804.67
2019-03-24T19:53:59.055Z,100800.15
2019-03-24T19:56:31.330Z,100798.06
2019-03-24T19:59:02.058Z,100796.34
2019-03-24T20:01:32.582Z,100801.48
2019-03-24T20:04:04.751Z,100805.81
2019-03-24T20:06:34.963Z,100805.81
2019-03-24T20:09:08.569Z,100803.52
2019-03-24T20:11:38.797Z,100809.00
2019-03-24T20:14:09.524Z,100809.52
2019-03-24T20:16:40.151Z,100797.15
2019-03-24T20:19:10.779Z,100800.43
2019-03-24T20:21:41.424Z,100797.49
2019-03-24T20:24:12.449Z,100807.66
2019-03-24T20:26:43.787Z,100810.42
2019-03-24T20:29:15.265Z,100802.14
2019-03-24T20:31:45.777Z,100806.63
2019-03-24T20:34:17.022Z,100800.11
2019-03-24T20:36:48.059Z,100798.77
2019-03-24T20:39:18.598Z,100798.39
2019-03-24T20:41:50.037Z,100796.91
2019-03-24T20:44:20.358Z,100796.44
2019-03-24T20:46:51.222Z,100800.84
2019-03-24T20:49:22.627Z,100802.03
2019-03-24T20:51:53.482Z,100807.17
2019-03-24T20:54:24.007Z,100799.80
2019-03-24T20:56:55.862Z,100803.08
2019-03-24T20:59:26.597Z,100806.98
2019-03-24T21:01:58.944Z,100803.89
2019-03-24T21:04:29.395Z,100797.73
2019-03-24T21:07:00.030Z,100804.84
2019-03-24T21:09:30.756Z,100809.83
2019-03-24T21:12:01.490Z,100806.25
2019-03-24T21:14:32.325Z,100801.10
2019-03-24T21:17:03.024Z,100800.58
2019-03-24T21:19:34.097Z,100791.28
2019-03-24T21:22:05.543Z,100801.16
2019-03-24T21:24:35.868Z,100805.47
2019-03-24T21:27:07.291Z,100796.89
2019-03-24T21:29:38.765Z,100800.14
2019-03-24T21:32:10.416Z,100796.73
2019-03-24T21:34:41.456Z,100791.77
2019-03-24T21:37:11.990Z,100795.51
2019-03-24T21:39:43.231Z,100798.46
2019-03-24T21:42:13.653Z,100799.33
2019-03-24T21:44:44.301Z,100797.94
2019-03-24T21:47:15.121Z,100797.61
2019-03-24T21:49:47.300Z,100794.98
2019-03-24T21:52:18.017Z,100788.64
2019-03-24T21:54:48.653Z,100788.98
2019-03-24T21:57:19.385Z,100790.18
2019-03-24T21:59:52.624Z,100781.09
2019-03-24T22:02:23.718Z,100774.86
2019-03-24T22:04:55.983Z,100776.95
2019-03-24T22:07:26.477Z,100774.20
2019-03-24T22:09:57.614Z,100754.63
2019-03-24T22:12:29.205Z,100754.63
2019-03-24T22:14:59.934Z,100759.78
2019-03-24T22:17:30.669Z,100764.64
2019-03-24T22:20:01.212Z,100762.92
2019-03-24T22:22:31.821Z,100769.16
2019-03-24T22:25:02.454Z,100765.22
2019-03-24T22:27:33.189Z,100766.94
2019-03-24T22:30:05.145Z,100770.53
2019-03-24T22:32:35.577Z,100772.25
2019-03-24T22:35:06.820Z,100771.25
2019-03-24T22:37:37.265Z,100771.58
2019-03-24T22:40:08.493Z,100766.08
2019-03-24T22:42:38.814Z,100771.09
2019-03-24T22:45:09.228Z,100777.27
2019-03-24T22:47:39.977Z,100776.74
2019-03-24T22:50:10.803Z,100781.55
2019-03-24T22:52:41.540Z,100774.34
2019-03-24T22:55:12.276Z,100784.30
2019-03-24T22:57:44.535Z,100789.63
2019-03-24T23:00:19.175Z,100785.50
2019-03-24T23:02:51.942Z,100782.55
2019-03-24T23:05:22.875Z,100789.41
2019-03-24T23:07:53.611Z,100786.32
2019-03-24T23:10:25.252Z,100788.05
2019-03-24T23:12:55.901Z,100789.04
2019-03-24T23:15:27.965Z,100788.21
2019-03-24T23:17:58.348Z,100790.47
2019-03-24T23:20:29.116Z,100782.37
2019-03-24T23:23:00.052Z,100782.72
2019-03-24T23:25:30.587Z,100776.02
2019-03-24T23:28:01.312Z,100770.36
2019-03-24T23:30:32.863Z,100776.33
2019-03-24T23:33:07.187Z,100766.72
2019-03-24T23:35:38.154Z,100762.60
2019-03-24T23:38:08.956Z,100764.66
2019-03-24T23:40:40.419Z,100774.06
2019-03-24T23:43:10.930Z,100770.42
2019-03-24T23:45:42.275Z,100773.20
2019-03-24T23:48:12.907Z,100772.31
2019-03-24T23:50:43.637Z,100775.22
2019-03-24T23:53:13.847Z,100772.48
2019-03-24T23:55:45.205Z,100776.09
2019-03-24T23:58:16.448Z,100774.37
